Molalla, Oregon
Current Conditions -  °F | °C
As of 3:53 PM on Monday 22 Dec 2014 (Local Time) from KUAO Reporting Station
Overcast Overcast  
Wind Chill: 52°   Ceiling: 11000
Heat Index: 52°   Visibility: 10mi
Dew Point: 48°   Wind: 5mph
Humidity: 86%   Direction: 10°N
Pressure: 30.37"   Gusts: NA
Location:  45.15°N, 122.58°W
Report Text: KUAO 222353Z AUTO 01004KT 10SM OVC110 11/09 A3037 RMK AO2 SLP283 T01110089 10133 20106 55001
Loading
Personal Weather Stations






























Interactive Weather Map New forecast layout! Learn more

10-Day Weather Forecast

Advertisements
Track Severe Weather on mobile